PWSweather.com
Personal Weather Stations
Station Observations
IRIVIRED2
île Maurice, Petit RaffrayMU

île MauricePetit RaffrayMU

Lat: -20.02533, Lon: 57.61883

Elevation: 183

Station Type: Davis Vantage Pro2 plus

http://www.meteomauritius.altervista.org

Latest ConditionsUpdated 9:10:01 AM GMT+04:04 Friday, Jun 23, 2017
Currently Today's Max Today's Min Today's Average
Temperature 75.6°F24.2°C 76.1°F24.5°C 66.9°F19.4°C 69.3°F20.7°C
Dew Point 63.4°F17.4°C 64.6°F18.1°C 60.6°F15.9°C 62.6°F17.0°C
Winds 4.6 mph E7.4 kmh E 9.2 mph E14.8 kmh E - 2.4 mph 3.9 kmh
Wind Gusts 11.5 mph18.5 kmh 13.8 mph22.2 kmh - -
Humidity 66% 84% 66% 80%
Pressure 30.20 in1022.7 mb 30.20 in1022.7 mb 30.14 in1020.7 mb -
Hour Temp Dew Point Humidity Winds Wind Gusts Pressure Precip Precip Rate Daily Precip Total
09:10 AM 75.6°F24.2°C 63.4°F17.4°C 66% 4.6 mph E7.4 kmh E 11.5 mph18.5 kmh 30.20 in1022.7 mb - 0.00 in0.0 mm 0.00 in0.0 mm
09:00 AM 76.1°F24.5°C 63.9°F17.7°C 66% 9.2 mph E14.8 kmh E 13.8 mph22.2 kmh 30.20 in1022.7 mb - 0.00 in0.0 mm 0.00 in0.0 mm
08:50 AM 75.8°F24.3°C 64.0°F17.8°C 67% 2.3 mph E3.7 kmh E 8.1 mph13.0 kmh 30.20 in1022.7 mb - 0.00 in0.0 mm 0.00 in0.0 mm
08:40 AM 75.7°F24.3°C 63.5°F17.5°C 66% 8.1 mph E13.0 kmh E 13.8 mph22.2 kmh 30.20 in1022.7 mb - 0.00 in0.0 mm 0.00 in0.0 mm
08:30 AM 75.5°F24.2°C 64.6°F18.1°C 69% 5.8 mph E9.3 kmh E 9.2 mph14.8 kmh 30.19 in1022.4 mb - 0.00 in0.0 mm 0.00 in0.0 mm
08:20 AM 74.7°F23.7°C 63.8°F17.7°C 69% 8.1 mph ESE13.0 kmh ESE 11.5 mph18.5 kmh 30.19 in1022.4 mb - 0.00 in0.0 mm 0.00 in0.0 mm
08:10 AM 73.6°F23.1°C 63.6°F17.6°C 71% 3.5 mph E5.6 kmh E 5.8 mph9.3 kmh 30.19 in1022.4 mb - 0.00 in0.0 mm 0.00 in0.0 mm
08:00 AM 72.9°F22.7°C 63.3°F17.4°C 72% 2.3 mph ESE3.7 kmh ESE 11.5 mph18.5 kmh 30.18 in1022.0 mb - 0.00 in0.0 mm 0.00 in0.0 mm
07:50 AM 71.5°F21.9°C 62.7°F17.1°C 74% 3.5 mph E5.6 kmh E 6.9 mph11.1 kmh 30.18 in1022.0 mb - 0.00 in0.0 mm 0.00 in0.0 mm
07:40 AM 70.3°F21.3°C 63.5°F17.5°C 79% 1.2 mph E1.9 kmh E 4.6 mph7.4 kmh 30.18 in1022.0 mb - 0.00 in0.0 mm 0.00 in0.0 mm
07:30 AM 69.7°F20.9°C 63.6°F17.6°C 81% Calm Calm -- 30.18 in1022.0 mb - 0.00 in0.0 mm 0.00 in0.0 mm
07:20 AM 69.2°F20.7°C 63.2°F17.3°C 81% 1.2 mph SSE1.9 kmh SSE 4.6 mph7.4 kmh 30.17 in1021.7 mb - 0.00 in0.0 mm 0.00 in0.0 mm
07:10 AM 68.6°F20.3°C 63.2°F17.3°C 83% Calm Calm 3.5 mph5.6 kmh 30.17 in1021.7 mb - 0.00 in0.0 mm 0.00 in0.0 mm
07:00 AM 68.3°F20.2°C 63.3°F17.4°C 84% 2.3 mph SSE3.7 kmh SSE 3.5 mph5.6 kmh 30.16 in1021.3 mb - 0.00 in0.0 mm 0.00 in0.0 mm
06:50 AM 68.1°F20.1°C 62.7°F17.1°C 83% Calm Calm -- 30.16 in1021.3 mb - 0.00 in0.0 mm 0.00 in0.0 mm
06:40 AM 68.0°F20.0°C 62.6°F17.0°C 83% Calm Calm -- 30.16 in1021.3 mb - 0.00 in0.0 mm 0.00 in0.0 mm
06:30 AM 68.0°F20.0°C 62.6°F17.0°C 83% Calm Calm -- 30.15 in1021.0 mb - 0.00 in0.0 mm 0.00 in0.0 mm
06:20 AM 68.0°F20.0°C 62.3°F16.8°C 82% Calm Calm -- 30.15 in1021.0 mb - 0.00 in0.0 mm 0.00 in0.0 mm
06:10 AM 67.8°F19.9°C 62.1°F16.7°C 82% 1.2 mph SSE1.9 kmh SSE 2.3 mph3.7 kmh 30.15 in1021.0 mb - 0.00 in0.0 mm 0.00 in0.0 mm
06:00 AM 67.4°F19.7°C 61.7°F16.5°C 82% 1.2 mph S1.9 kmh S 3.5 mph5.6 kmh 30.15 in1021.0 mb - 0.00 in0.0 mm 0.00 in0.0 mm
05:50 AM 67.2°F19.6°C 61.5°F16.4°C 82% 1.2 mph S1.9 kmh S 2.3 mph3.7 kmh 30.15 in1021.0 mb - 0.00 in0.0 mm 0.00 in0.0 mm
05:40 AM 67.1°F19.5°C 61.1°F16.2°C 81% 1.2 mph S1.9 kmh S -- 30.14 in1020.7 mb - 0.00 in0.0 mm 0.00 in0.0 mm
05:30 AM 67.0°F19.4°C 61.0°F16.1°C 81% 1.2 mph S1.9 kmh S 3.5 mph5.6 kmh 30.14 in1020.7 mb - 0.00 in0.0 mm 0.00 in0.0 mm
05:20 AM 67.0°F19.4°C 60.6°F15.9°C 80% 3.5 mph S5.6 kmh S 5.8 mph9.3 kmh 30.14 in1020.7 mb - 0.00 in0.0 mm 0.00 in0.0 mm
05:10 AM 67.0°F19.4°C 60.6°F15.9°C 80% 2.3 mph S3.7 kmh S 3.5 mph5.6 kmh 30.14 in1020.7 mb - 0.00 in0.0 mm 0.00 in0.0 mm
05:00 AM 67.0°F19.4°C 61.0°F16.1°C 81% 1.2 mph S1.9 kmh S 2.3 mph3.7 kmh 30.14 in1020.7 mb - 0.00 in0.0 mm 0.00 in0.0 mm
04:50 AM 66.9°F19.4°C 60.9°F16.1°C 81% 2.3 mph SSE3.7 kmh SSE 4.6 mph7.4 kmh 30.14 in1020.7 mb - 0.00 in0.0 mm 0.00 in0.0 mm
04:40 AM 67.1°F19.5°C 61.1°F16.2°C 81% Calm Calm 3.5 mph5.6 kmh 30.14 in1020.7 mb - 0.00 in0.0 mm 0.00 in0.0 mm
04:30 AM 67.2°F19.6°C 61.5°F16.4°C 82% 1.2 mph S1.9 kmh S 3.5 mph5.6 kmh 30.14 in1020.7 mb - 0.00 in0.0 mm 0.00 in0.0 mm
04:20 AM 67.3°F19.6°C 61.6°F16.4°C 82% 2.3 mph S3.7 kmh S 3.5 mph5.6 kmh 30.14 in1020.7 mb - 0.00 in0.0 mm 0.00 in0.0 mm
04:10 AM 67.4°F19.7°C 61.7°F16.5°C 82% 2.3 mph S3.7 kmh S 3.5 mph5.6 kmh 30.14 in1020.7 mb - 0.00 in0.0 mm 0.00 in0.0 mm
04:00 AM 67.5°F19.7°C 61.8°F16.6°C 82% 1.2 mph SSE1.9 kmh SSE 2.3 mph3.7 kmh 30.14 in1020.7 mb - 0.00 in0.0 mm 0.00 in0.0 mm
03:50 AM 67.7°F19.8°C 62.0°F16.7°C 82% 2.3 mph SSE3.7 kmh SSE 8.1 mph13.0 kmh 30.14 in1020.7 mb - 0.00 in0.0 mm 0.00 in0.0 mm
03:40 AM 68.0°F20.0°C 62.3°F16.8°C 82% 1.2 mph S1.9 kmh S 5.8 mph9.3 kmh 30.14 in1020.7 mb - 0.00 in0.0 mm 0.00 in0.0 mm
03:30 AM 68.4°F20.2°C 62.7°F17.1°C 82% 1.2 mph SSE1.9 kmh SSE 1.2 mph1.9 kmh 30.14 in1020.7 mb - 0.00 in0.0 mm 0.00 in0.0 mm
03:20 AM 68.7°F20.4°C 62.6°F17.0°C 81% Calm Calm -- 30.14 in1020.7 mb - 0.00 in0.0 mm 0.00 in0.0 mm
03:10 AM 68.8°F20.4°C 62.7°F17.1°C 81% 2.3 mph SE3.7 kmh SE 2.3 mph3.7 kmh 30.14 in1020.7 mb - 0.00 in0.0 mm 0.00 in0.0 mm
03:00 AM 68.9°F20.5°C 62.8°F17.1°C 81% 3.5 mph S5.6 kmh S 4.6 mph7.4 kmh 30.14 in1020.7 mb - 0.00 in0.0 mm 0.00 in0.0 mm
02:50 AM 69.0°F20.6°C 62.6°F17.0°C 80% 3.5 mph SSE5.6 kmh SSE 5.8 mph9.3 kmh 30.14 in1020.7 mb - 0.00 in0.0 mm 0.00 in0.0 mm
02:40 AM 69.0°F20.6°C 62.6°F17.0°C 80% 4.6 mph SSE7.4 kmh SSE 6.9 mph11.1 kmh 30.14 in1020.7 mb - 0.00 in0.0 mm 0.00 in0.0 mm
02:30 AM 68.4°F20.2°C 62.3°F16.8°C 81% 3.5 mph SE5.6 kmh SE 6.9 mph11.1 kmh 30.14 in1020.7 mb - 0.00 in0.0 mm 0.00 in0.0 mm
02:20 AM 68.7°F20.4°C 62.6°F17.0°C 81% 3.5 mph SSE5.6 kmh SSE 4.6 mph7.4 kmh 30.14 in1020.7 mb - 0.00 in0.0 mm 0.00 in0.0 mm
02:10 AM 68.3°F20.2°C 62.6°F17.0°C 82% 4.6 mph SE7.4 kmh SE 6.9 mph11.1 kmh 30.15 in1021.0 mb - 0.00 in0.0 mm 0.00 in0.0 mm
02:00 AM 68.0°F20.0°C 62.6°F17.0°C 83% 2.3 mph SSE3.7 kmh SSE 4.6 mph7.4 kmh 30.15 in1021.0 mb - 0.00 in0.0 mm 0.00 in0.0 mm
01:50 AM 68.0°F20.0°C 62.6°F17.0°C 83% 2.3 mph SSE3.7 kmh SSE 5.8 mph9.3 kmh 30.15 in1021.0 mb - 0.00 in0.0 mm 0.00 in0.0 mm
01:40 AM 68.1°F20.1°C 62.7°F17.1°C 83% 2.3 mph SSE3.7 kmh SSE 3.5 mph5.6 kmh 30.15 in1021.0 mb - 0.00 in0.0 mm 0.00 in0.0 mm
01:30 AM 68.3°F20.2°C 62.9°F17.2°C 83% 2.3 mph SSE3.7 kmh SSE 3.5 mph5.6 kmh 30.15 in1021.0 mb - 0.00 in0.0 mm 0.00 in0.0 mm
01:20 AM 68.7°F20.4°C 62.9°F17.2°C 82% 3.5 mph S5.6 kmh S 4.6 mph7.4 kmh 30.16 in1021.3 mb - 0.00 in0.0 mm 0.00 in0.0 mm
01:10 AM 68.7°F20.4°C 63.3°F17.4°C 83% 2.3 mph SE3.7 kmh SE 3.5 mph5.6 kmh 30.16 in1021.3 mb - 0.00 in0.0 mm 0.00 in0.0 mm
01:00 AM 68.5°F20.3°C 63.1°F17.3°C 83% 2.3 mph SE3.7 kmh SE 3.5 mph5.6 kmh 30.16 in1021.3 mb - 0.00 in0.0 mm 0.00 in0.0 mm
12:50 AM 68.6°F20.3°C 63.2°F17.3°C 83% 3.5 mph SSE5.6 kmh SSE 4.6 mph7.4 kmh 30.16 in1021.3 mb - 0.00 in0.0 mm 0.00 in0.0 mm
12:40 AM 69.0°F20.6°C 62.9°F17.2°C 81% 1.2 mph S1.9 kmh S 3.5 mph5.6 kmh 30.16 in1021.3 mb - 0.00 in0.0 mm 0.00 in0.0 mm
12:30 AM 69.7°F20.9°C 63.3°F17.4°C 80% Calm Calm -- 30.16 in1021.3 mb - 0.00 in0.0 mm 0.00 in0.0 mm
12:20 AM 70.0°F21.1°C 63.2°F17.3°C 79% Calm Calm 3.5 mph5.6 kmh 30.16 in1021.3 mb - 0.00 in0.0 mm 0.00 in0.0 mm
12:10 AM 70.1°F21.2°C 63.3°F17.4°C 79% 4.6 mph SE7.4 kmh SE 6.9 mph11.1 kmh 30.16 in1021.3 mb - 0.00 in0.0 mm 0.00 in0.0 mm
12:00 AM 70.1°F21.2°C 63.6°F17.6°C 80% 5.8 mph SE9.3 kmh SE 9.2 mph14.8 kmh 30.16 in1021.3 mb - 0.00 in0.0 mm 0.00 in0.0 mm